Time;durP1;ratioP1;P1;durP2;ratioP2;P2;SDS_P1;SDS_P2;PMS_P1;PMS_P2;Temp;Humidity;BMP_temperature;BMP_pressure;BME280_temperature;BME280_humidity;BME280_pressure;Samples;Min_cycle;Max_cycle;Signal;HPM_P1;HPM_P2
2024/01/03 00:02:24;;;;;;;1.17;0.80;;;;;;;12.86;62.61;95755.13;5057407;28;20424;-69
2024/01/03 00:04:49;;;;;;;1.23;1.00;;;;;;;12.94;62.35;95752.31;5040206;28;20265;-70
2024/01/03 00:07:15;;;;;;;1.90;1.50;;;;;;;13.01;61.83;95752.31;5080803;28;20709;-70
2024/01/03 00:09:40;;;;;;;1.47;0.60;;;;;;;12.90;61.66;95748.47;5066151;28;20205;-70
2024/01/03 00:12:07;;;;;;;1.10;0.70;;;;;;;12.88;61.60;95745.22;5064576;28;20294;-69
2024/01/03 00:14:34;;;;;;;0.80;0.60;;;;;;;12.88;60.91;95750.47;5062811;28;20227;-67
2024/01/03 00:17:07;;;;;;;0.93;0.80;;;;;;;12.89;60.04;95750.28;5066310;28;23848;-71
2024/01/03 00:19:34;;;;;;;3.43;0.77;;;;;;;12.82;59.16;95736.31;5067367;28;20520;-70
2024/01/03 00:22:00;;;;;;;3.10;0.90;;;;;;;12.88;58.63;95742.59;5075005;28;20968;-70
2024/01/03 00:24:25;;;;;;;1.53;1.10;;;;;;;12.90;58.58;95746.66;5068337;28;20447;-70
2024/01/03 00:26:51;;;;;;;1.33;0.90;;;;;;;13.00;58.20;95737.53;5059866;28;20784;-69
2024/01/03 00:29:53;;;;;;;1.03;0.70;;;;;;;12.79;57.38;95736.72;5078156;28;20182;-69
2024/01/03 00:32:20;;;;;;;3.30;0.90;;;;;;;12.95;57.06;95743.41;5062336;28;20662;-69
2024/01/03 00:34:45;;;;;;;2.87;1.30;;;;;;;13.03;56.90;95737.94;5064626;28;20429;-70
2024/01/03 00:37:32;;;;;;;3.40;0.97;;;;;;;13.01;56.73;95729.44;5065362;28;20816;-69
2024/01/03 00:39:59;;;;;;;2.90;0.97;;;;;;;13.03;56.23;95730.06;5057297;28;20227;-69
2024/01/03 00:42:24;;;;;;;4.90;1.10;;;;;;;12.92;56.22;95737.75;5061559;28;20441;-69
2024/01/03 00:44:50;;;;;;;1.23;0.80;;;;;;;12.83;56.21;95737.16;5065173;28;20423;-69
2024/01/03 00:47:18;;;;;;;4.60;1.27;;;;;;;12.84;56.32;95744.03;5043936;28;20758;-69
2024/01/03 00:49:44;;;;;;;3.43;0.90;;;;;;;12.92;55.91;95743.03;5061160;28;20183;-71
2024/01/03 00:52:09;;;;;;;3.03;0.90;;;;;;;12.95;56.11;95759.19;5040184;28;20847;-71
2024/01/03 00:54:35;;;;;;;4.27;1.00;;;;;;;12.73;56.28;95772.50;5069063;28;20678;-70
2024/01/03 00:57:01;;;;;;;4.23;1.03;;;;;;;12.80;56.81;95774.34;5066548;28;20213;-71
2024/01/03 00:59:26;;;;;;;2.17;0.97;;;;;;;12.91;56.76;95771.13;5046692;28;20453;-69
2024/01/03 01:01:52;;;;;;;2.10;0.83;;;;;;;12.92;57.21;95790.34;5067867;28;20855;-70
2024/01/03 01:04:18;;;;;;;2.80;0.93;;;;;;;12.92;57.36;95795.59;5067962;28;20183;-69
2024/01/03 01:06:43;;;;;;;2.43;1.00;;;;;;;12.84;57.80;95796.59;5063355;28;20191;-72
2024/01/03 01:09:09;;;;;;;5.00;0.80;;;;;;;12.63;58.49;95818.59;5059452;28;20201;-71
2024/01/03 01:11:35;;;;;;;1.30;0.70;;;;;;;12.70;58.06;95793.13;5065793;28;20733;-71
2024/01/03 01:14:00;;;;;;;3.00;0.80;;;;;;;12.75;57.91;95775.75;5056062;28;20179;-71
2024/01/03 01:16:26;;;;;;;1.10;0.77;;;;;;;12.65;58.40;95774.53;5045149;28;20459;-70
2024/01/03 01:18:51;;;;;;;1.00;0.60;;;;;;;12.74;58.41;95778.59;5060138;28;20233;-69
2024/01/03 01:21:16;;;;;;;1.17;0.60;;;;;;;12.50;58.85;95787.84;5062083;28;20236;-71
2024/01/03 01:23:42;;;;;;;2.00;0.97;;;;;;;12.48;59.63;95785.41;5065107;28;20273;-72
2024/01/03 01:26:11;;;;;;;2.23;0.90;;;;;;;12.58;59.56;95785.03;5070162;28;20194;-69
2024/01/03 01:28:36;;;;;;;1.10;0.80;;;;;;;12.61;59.45;95789.88;5050158;28;20198;-70
2024/01/03 01:31:02;;;;;;;1.40;0.97;;;;;;;12.58;59.37;95785.03;5072656;28;20793;-70
2024/01/03 01:33:27;;;;;;;2.50;0.90;;;;;;;12.52;59.63;95798.97;5071155;28;20182;-69
2024/01/03 01:35:53;;;;;;;1.73;0.90;;;;;;;12.50;59.87;95804.44;5058246;28;20566;-70
2024/01/03 01:38:18;;;;;;;2.20;0.87;;;;;;;12.65;59.35;95801.63;5043390;28;20221;-72
2024/01/03 01:40:48;;;;;;;1.50;1.00;;;;;;;12.71;59.28;95803.47;5059555;28;20186;-70
2024/01/03 01:43:14;;;;;;;3.13;1.10;;;;;;;12.79;59.03;95806.91;5070397;28;20182;-73
2024/01/03 01:45:40;;;;;;;3.47;1.03;;;;;;;12.64;59.68;95810.50;5043681;28;20429;-70
2024/01/03 01:48:06;;;;;;;2.10;0.87;;;;;;;12.61;59.66;95818.78;5074493;28;20456;-70
2024/01/03 01:50:32;;;;;;;2.70;0.80;;;;;;;12.66;59.85;95812.97;5060756;28;20217;-69
2024/01/03 01:52:58;;;;;;;1.87;1.00;;;;;;;12.59;60.06;95832.13;5053350;28;20437;-70
2024/01/03 01:55:24;;;;;;;5.10;1.30;;;;;;;12.68;60.02;95824.06;5060394;28;20218;-70
2024/01/03 01:57:51;;;;;;;3.00;1.07;;;;;;;12.69;59.92;95813.38;5041378;28;20444;-71
2024/01/03 02:00:17;;;;;;;1.53;0.80;;;;;;;12.74;59.70;95818.03;5059116;28;20211;-70
2024/01/03 02:02:43;;;;;;;1.00;0.70;;;;;;;12.62;59.44;95833.56;5042286;28;20427;-70
2024/01/03 02:05:09;;;;;;;1.30;0.60;;;;;;;12.78;59.20;95813.16;5045847;28;20217;-70
2024/01/03 02:07:35;;;;;;;0.97;0.77;;;;;;;12.52;60.20;95809.47;5049143;28;20565;-71
2024/01/03 02:10:00;;;;;;;0.90;0.70;;;;;;;12.61;60.27;95810.91;5066526;28;20933;-69
2024/01/03 02:12:27;;;;;;;1.93;0.77;;;;;;;12.63;59.37;95813.34;5058769;28;20179;-69
2024/01/03 02:14:53;;;;;;;2.40;0.70;;;;;;;12.68;59.61;95822.25;5052315;28;20193;-70
2024/01/03 02:17:18;;;;;;;1.83;0.60;;;;;;;12.65;58.64;95821.84;5073194;28;20452;-71
2024/01/03 02:19:44;;;;;;;2.50;0.70;;;;;;;12.63;59.20;95814.16;5065588;28;20547;-70
2024/01/03 02:22:09;;;;;;;1.00;0.57;;;;;;;12.50;59.22;95829.88;5063587;28;20182;-70
2024/01/03 02:24:35;;;;;;;1.13;0.50;;;;;;;12.47;59.15;95830.31;5060567;28;20771;-70
2024/01/03 02:27:00;;;;;;;2.57;0.57;;;;;;;12.57;58.68;95820.22;5065755;28;20278;-70
2024/01/03 02:29:25;;;;;;;3.37;0.80;;;;;;;12.39;58.98;95834.72;5071229;28;20696;-70
2024/01/03 02:31:51;;;;;;;1.20;0.70;;;;;;;12.34;59.29;95818.75;5045433;28;20224;-70
2024/01/03 02:34:16;;;;;;;3.00;0.63;;;;;;;12.49;58.96;95830.88;5071958;28;20344;-70
2024/01/03 02:36:42;;;;;;;1.43;0.50;;;;;;;12.40;59.18;95846.03;5059228;28;20273;-71
2024/01/03 02:39:07;;;;;;;1.53;0.50;;;;;;;12.51;58.75;95823.63;5055643;28;20749;-70
2024/01/03 02:41:33;;;;;;;1.37;0.60;;;;;;;12.43;59.12;95845.63;5069299;28;20243;-69
2024/01/03 02:43:58;;;;;;;0.80;0.50;;;;;;;12.41;59.33;95831.91;5079103;28;20205;-69
2024/01/03 02:46:24;;;;;;;0.90;0.60;;;;;;;12.48;59.17;95843.22;5086226;28;20182;-69
2024/01/03 02:48:49;;;;;;;1.07;0.67;;;;;;;12.33;60.37;95850.44;5072401;28;20210;-69
2024/01/03 02:51:21;;;;;;;1.90;0.50;;;;;;;12.30;60.81;95851.66;5079433;28;20198;-70
2024/01/03 02:53:47;;;;;;;1.13;0.60;;;;;;;12.32;61.29;95852.28;5063700;28;20533;-70
2024/01/03 02:56:13;;;;;;;0.80;0.50;;;;;;;12.34;62.04;95847.63;5078134;28;20416;-70
2024/01/03 02:58:38;;;;;;;1.10;0.77;;;;;;;12.29;62.14;95848.19;5054072;28;20654;-69
2024/01/03 03:01:04;;;;;;;1.10;0.60;;;;;;;12.27;62.93;95846.78;5068165;28;20197;-70
2024/01/03 03:03:30;;;;;;;1.50;0.57;;;;;;;12.13;63.53;95833.59;5067933;28;20211;-70
2024/01/03 03:05:55;;;;;;;1.10;0.60;;;;;;;12.20;63.56;95841.50;5046695;28;20195;-71
2024/01/03 03:08:21;;;;;;;1.10;0.60;;;;;;;12.20;63.94;95831.00;5072449;28;20263;-70
2024/01/03 03:10:46;;;;;;;1.77;0.57;;;;;;;12.12;63.88;95833.81;5059720;28;20186;-71
2024/01/03 03:13:12;;;;;;;2.37;0.80;;;;;;;12.23;63.90;95833.25;5066422;28;20244;-70
2024/01/03 03:15:37;;;;;;;2.17;0.80;;;;;;;12.27;63.95;95825.78;5065022;28;20566;-70
2024/01/03 03:18:03;;;;;;;1.00;0.60;;;;;;;12.23;64.02;95824.53;5041004;28;20218;-68
2024/01/03 03:20:28;;;;;;;0.80;0.53;;;;;;;12.27;63.78;95813.47;5072843;28;20182;-70
2024/01/03 03:22:54;;;;;;;1.23;0.67;;;;;;;12.22;64.27;95817.69;5067018;28;20178;-70
2024/01/03 03:25:19;;;;;;;0.80;0.60;;;;;;;12.22;64.18;95833.44;5036021;28;20343;-70
2024/01/03 03:27:45;;;;;;;0.97;0.70;;;;;;;12.24;64.37;95826.16;5059987;28;20242;-70
2024/01/03 03:30:11;;;;;;;1.80;0.80;;;;;;;12.23;64.01;95809.59;5059409;28;20270;-70
2024/01/03 03:32:36;;;;;;;0.80;0.60;;;;;;;12.35;63.87;95819.53;5067774;28;20186;-69
2024/01/03 03:35:01;;;;;;;1.23;0.70;;;;;;;12.25;64.42;95825.16;5060568;28;20985;-70
2024/01/03 03:37:27;;;;;;;1.57;0.70;;;;;;;12.30;63.92;95817.50;5053052;28;20213;-70
2024/01/03 03:39:52;;;;;;;1.00;0.70;;;;;;;12.28;63.85;95822.97;5055819;28;20305;-70
2024/01/03 03:42:18;;;;;;;0.90;0.70;;;;;;;12.16;64.03;95835.00;5075738;28;20183;-72
2024/01/03 03:44:44;;;;;;;1.20;0.90;;;;;;;12.13;64.55;95823.09;5072122;28;20714;-71
2024/01/03 03:47:09;;;;;;;2.00;0.70;;;;;;;12.16;64.24;95831.59;5066351;28;20428;-70
2024/01/03 03:49:35;;;;;;;3.43;0.90;;;;;;;12.20;63.97;95824.94;5051631;28;20186;-71
2024/01/03 03:52:01;;;;;;;1.00;0.70;;;;;;;12.25;63.77;95815.47;5042190;28;20190;-69
2024/01/03 03:54:26;;;;;;;1.67;1.13;;;;;;;12.22;63.63;95809.81;5064177;28;20680;-70
2024/01/03 03:56:51;;;;;;;2.37;0.87;;;;;;;12.08;63.89;95815.00;5069055;28;20218;-69
2024/01/03 03:59:17;;;;;;;1.90;0.90;;;;;;;12.09;63.56;95814.00;5062425;28;20241;-70
2024/01/03 04:01:49;;;;;;;1.10;0.80;;;;;;;12.12;63.13;95813.59;5070136;28;20266;-70
2024/01/03 04:04:15;;;;;;;1.33;0.80;;;;;;;12.07;62.87;95818.63;5062251;28;20240;-69
2024/01/03 04:06:42;;;;;;;1.00;0.70;;;;;;;11.98;63.11;95820.63;5065428;28;20441;-70
2024/01/03 04:09:08;;;;;;;2.87;1.00;;;;;;;11.94;62.84;95813.28;5053776;28;20532;-70
2024/01/03 04:11:33;;;;;;;2.67;0.70;;;;;;;11.94;62.10;95810.66;5055358;28;20575;-70
2024/01/03 04:13:59;;;;;;;1.50;0.70;;;;;;;11.97;62.02;95823.41;5049448;28;20432;-71
2024/01/03 04:16:24;;;;;;;1.20;0.90;;;;;;;12.00;61.01;95828.28;5075473;28;20192;-70
2024/01/03 04:18:50;;;;;;;1.83;0.90;;;;;;;11.91;60.84;95838.09;5067103;28;20229;-70
2024/01/03 04:21:15;;;;;;;1.97;0.83;;;;;;;12.02;60.56;95831.53;5076028;28;20217;-71
2024/01/03 04:23:41;;;;;;;2.13;1.03;;;;;;;12.02;60.17;95836.78;5065271;28;20213;-71
2024/01/03 04:26:06;;;;;;;1.67;0.80;;;;;;;12.02;59.79;95834.16;5070525;28;20278;-69
2024/01/03 04:28:32;;;;;;;1.20;0.90;;;;;;;11.99;59.55;95824.03;5060745;28;20784;-69
2024/01/03 04:30:57;;;;;;;2.70;0.90;;;;;;;12.05;59.63;95832.94;5071493;28;20603;-69
2024/01/03 04:33:23;;;;;;;1.90;0.80;;;;;;;11.98;59.52;95823.25;5062823;28;20259;-70
2024/01/03 04:35:48;;;;;;;5.17;0.90;;;;;;;11.96;59.32;95830.47;5062695;28;20205;-70
2024/01/03 04:38:14;;;;;;;1.57;0.90;;;;;;;11.87;59.20;95825.56;5062201;28;20218;-70
2024/01/03 04:40:39;;;;;;;3.80;1.50;;;;;;;12.05;58.59;95822.44;5059602;28;20642;-69
2024/01/03 04:43:05;;;;;;;2.53;0.90;;;;;;;12.06;58.24;95819.66;5063254;28;20197;-68
2024/01/03 04:45:30;;;;;;;6.13;1.20;;;;;;;12.13;57.81;95824.94;5043783;28;20185;-70
2024/01/03 04:47:56;;;;;;;3.40;1.23;;;;;;;12.09;57.84;95829.75;5049434;28;20207;-70
2024/01/03 04:50:21;;;;;;;2.40;0.90;;;;;;;12.01;57.73;95824.66;5043454;28;20214;-71
2024/01/03 04:52:46;;;;;;;3.73;0.90;;;;;;;12.05;57.61;95820.66;5064588;28;20266;-71
2024/01/03 04:55:12;;;;;;;2.33;1.10;;;;;;;12.03;57.85;95827.91;5057342;28;20758;-69
2024/01/03 04:57:38;;;;;;;3.77;1.40;;;;;;;12.03;57.67;95829.72;5069778;28;20218;-70
2024/01/03 05:00:06;;;;;;;1.87;0.90;;;;;;;11.99;57.44;95813.53;5063359;28;20215;-71
2024/01/03 05:02:32;;;;;;;2.40;0.90;;;;;;;11.74;57.39;95836.81;5068332;28;20862;-70
2024/01/03 05:04:57;;;;;;;1.10;0.80;;;;;;;11.91;57.51;95822.34;5061314;28;20538;-71
2024/01/03 05:07:24;;;;;;;2.90;1.00;;;;;;;11.97;57.35;95828.66;5073017;28;20223;-69
2024/01/03 05:09:49;;;;;;;2.37;0.90;;;;;;;12.03;57.03;95825.28;5078695;28;20178;-71
2024/01/03 05:12:15;;;;;;;2.20;1.00;;;;;;;11.88;56.73;95832.44;5054391;28;20415;-70
2024/01/03 05:14:40;;;;;;;1.97;0.90;;;;;;;12.02;56.88;95828.91;5072046;28;20255;-70
2024/01/03 05:17:05;;;;;;;3.73;0.90;;;;;;;11.93;56.45;95837.91;5052385;28;20194;-71
2024/01/03 05:19:31;;;;;;;4.50;1.00;;;;;;;12.11;56.44;95843.47;5081668;28;20214;-70
2024/01/03 05:21:56;;;;;;;4.10;1.00;;;;;;;12.03;56.08;95840.22;5070291;28;20615;-71
2024/01/03 05:24:22;;;;;;;4.67;1.20;;;;;;;11.97;55.98;95839.97;5057911;28;20268;-71
2024/01/03 05:26:47;;;;;;;5.80;1.20;;;;;;;12.05;55.73;95839.03;5069286;28;20195;-71
2024/01/03 05:29:15;;;;;;;4.40;1.03;;;;;;;11.98;55.38;95838.16;5055499;28;20652;-70
2024/01/03 05:31:41;;;;;;;2.50;1.07;;;;;;;12.23;55.04;95846.38;5071804;28;20444;-70
2024/01/03 05:34:08;;;;;;;3.57;1.00;;;;;;;12.16;55.32;95839.47;5055932;28;21000;-69
2024/01/03 05:36:34;;;;;;;3.13;1.10;;;;;;;12.12;55.17;95855.59;5066913;28;20179;-70
2024/01/03 05:38:59;;;;;;;4.47;1.20;;;;;;;12.25;54.81;95848.78;5056406;28;20472;-69
2024/01/03 05:41:25;;;;;;;5.97;1.13;;;;;;;12.29;54.83;95839.53;5067251;28;20237;-70
2024/01/03 05:43:50;;;;;;;10.03;1.20;;;;;;;12.26;55.08;95834.66;5037690;28;20187;-71
2024/01/03 05:46:15;;;;;;;5.77;1.00;;;;;;;12.14;55.10;95826.53;5059558;28;20183;-70
2024/01/03 05:48:42;;;;;;;3.67;0.77;;;;;;;12.18;55.03;95845.34;5061397;28;20210;-70
2024/01/03 05:51:08;;;;;;;3.83;0.90;;;;;;;12.26;54.87;95851.25;5069675;28;20282;-69
2024/01/03 05:53:34;;;;;;;3.93;1.37;;;;;;;12.43;54.42;95850.88;5059827;28;20508;-71
2024/01/03 05:55:59;;;;;;;3.37;1.20;;;;;;;12.42;54.55;95865.03;5059717;28;20425;-70
2024/01/03 05:58:25;;;;;;;3.43;1.30;;;;;;;12.28;54.73;95862.38;5069407;28;20806;-71
2024/01/03 06:00:53;;;;;;;2.30;1.07;;;;;;;12.41;55.04;95869.47;5065765;28;20197;-71
2024/01/03 06:03:18;;;;;;;2.23;1.30;;;;;;;12.52;54.83;95868.13;5062510;28;20427;-72
2024/01/03 06:05:43;;;;;;;6.80;1.20;;;;;;;12.49;55.33;95880.81;5069434;28;20807;-71
2024/01/03 06:08:09;;;;;;;8.03;1.03;;;;;;;12.50;55.42;95890.31;5063969;28;20202;-71
2024/01/03 06:10:35;;;;;;;10.07;1.67;;;;;;;12.54;55.29;95884.47;5071963;28;20848;-71
2024/01/03 06:13:00;;;;;;;4.63;1.43;;;;;;;12.53;55.50;95888.13;5069083;28;20201;-69
2024/01/03 06:15:26;;;;;;;3.40;0.93;;;;;;;12.24;57.00;95894.44;5067386;28;20233;-71
2024/01/03 06:17:51;;;;;;;2.23;0.80;;;;;;;12.22;56.88;95885.97;5062174;28;20698;-71
2024/01/03 06:20:16;;;;;;;5.20;1.40;;;;;;;12.38;56.91;95875.13;5050316;28;20228;-69
2024/01/03 06:22:42;;;;;;;6.60;1.40;;;;;;;12.35;57.37;95875.50;5063125;28;20708;-69
2024/01/03 06:25:07;;;;;;;2.00;0.97;;;;;;;12.44;57.09;95868.25;5069900;28;20194;-70
2024/01/03 06:27:33;;;;;;;2.90;1.47;;;;;;;12.31;58.01;95861.16;5075127;28;20257;-69
2024/01/03 06:29:58;;;;;;;5.50;1.10;;;;;;;12.40;57.14;95867.06;5072406;28;20702;-68
2024/01/03 06:32:24;;;;;;;4.10;1.00;;;;;;;12.41;57.60;95863.44;5060564;28;20187;-70
2024/01/03 06:34:49;;;;;;;4.10;1.20;;;;;;;12.39;57.68;95876.75;5067250;28;20270;-70
2024/01/03 06:37:15;;;;;;;2.20;1.00;;;;;;;12.45;57.59;95875.16;5063248;28;20226;-69
2024/01/03 06:39:40;;;;;;;1.97;0.90;;;;;;;12.42;57.59;95865.03;5064905;28;20201;-70
2024/01/03 06:42:05;;;;;;;3.13;0.90;;;;;;;12.29;57.60;95865.78;5073477;28;20687;-71
2024/01/03 06:44:31;;;;;;;3.27;1.13;;;;;;;12.25;57.72;95854.03;5073137;28;20209;-72
2024/01/03 06:46:56;;;;;;;4.40;1.07;;;;;;;12.27;57.49;95857.28;5058869;28;20207;-71
2024/01/03 06:49:22;;;;;;;8.53;1.40;;;;;;;12.35;57.18;95857.13;5068792;28;20203;-70
2024/01/03 06:51:48;;;;;;;5.43;1.10;;;;;;;12.36;57.15;95865.81;5063617;28;20188;-70
2024/01/03 06:54:13;;;;;;;4.47;1.17;;;;;;;12.19;57.05;95865.34;5066818;28;20197;-69
2024/01/03 06:56:39;;;;;;;3.10;1.20;;;;;;;12.29;57.21;95860.53;5063166;28;20282;-69
2024/01/03 06:59:04;;;;;;;2.30;1.20;;;;;;;12.20;56.62;95867.78;5073147;28;20273;-70
2024/01/03 07:01:31;;;;;;;4.90;1.50;;;;;;;12.22;56.70;95867.59;5060097;28;20198;-71
2024/01/03 07:03:58;;;;;;;4.27;1.30;;;;;;;12.22;56.50;95857.09;5073779;28;20202;-71
2024/01/03 07:06:24;;;;;;;3.27;1.20;;;;;;;12.21;56.32;95868.59;5050435;28;20471;-71
2024/01/03 07:08:51;;;;;;;5.07;0.90;;;;;;;12.19;55.98;95866.16;5076164;28;20447;-71
2024/01/03 07:11:17;;;;;;;2.57;1.07;;;;;;;12.28;55.98;95859.75;5069312;28;20264;-71
2024/01/03 07:13:42;;;;;;;5.00;1.00;;;;;;;12.23;55.71;95866.56;5071861;28;20420;-69
2024/01/03 07:16:09;;;;;;;4.67;0.90;;;;;;;12.41;55.32;95868.69;5075690;28;20194;-70
2024/01/03 07:18:34;;;;;;;5.17;0.97;;;;;;;12.29;55.96;95873.66;5057718;28;20215;-70
2024/01/03 07:20:59;;;;;;;3.87;1.53;;;;;;;12.23;55.66;95877.88;5063298;28;21219;-70
2024/01/03 07:23:25;;;;;;;3.90;0.90;;;;;;;12.36;55.30;95874.50;5071169;28;20913;-70
2024/01/03 07:25:50;;;;;;;4.30;0.90;;;;;;;12.35;55.23;95875.50;5070077;28;20259;-71
2024/01/03 07:28:16;;;;;;;3.07;1.17;;;;;;;12.35;55.13;95865.00;5067562;28;20222;-68
2024/01/03 07:30:41;;;;;;;2.30;1.13;;;;;;;12.46;55.37;95870.72;5082513;28;20229;-69
2024/01/03 07:33:08;;;;;;;1.27;0.87;;;;;;;12.43;55.20;95877.16;5061009;28;20282;-71
2024/01/03 07:35:33;;;;;;;6.37;1.30;;;;;;;12.33;55.50;95879.34;5040433;28;20193;-70
2024/01/03 07:37:58;;;;;;;5.00;1.50;;;;;;;12.36;55.50;95877.13;5060020;28;20457;-70
2024/01/03 07:40:24;;;;;;;5.10;1.30;;;;;;;12.41;55.82;95874.72;5069773;28;20311;-69
2024/01/03 07:42:49;;;;;;;4.03;1.17;;;;;;;12.50;55.32;95887.69;5078915;28;20192;-70
2024/01/03 07:45:16;;;;;;;5.40;0.90;;;;;;;12.52;55.51;95888.31;5059441;28;20207;-70
2024/01/03 07:47:41;;;;;;;2.60;1.00;;;;;;;12.51;55.84;95884.88;5068901;28;20214;-67
2024/01/03 07:50:07;;;;;;;2.50;1.00;;;;;;;12.40;56.01;95877.56;5067196;28;20472;-70
2024/01/03 07:52:32;;;;;;;5.30;1.10;;;;;;;12.49;55.81;95886.06;5047455;28;20547;-70
2024/01/03 07:54:58;;;;;;;2.93;1.10;;;;;;;12.55;55.83;95886.09;5065501;28;20230;-70
2024/01/03 07:57:23;;;;;;;2.93;1.33;;;;;;;12.52;56.01;95886.50;5072855;28;20710;-69
2024/01/03 07:59:50;;;;;;;1.00;0.80;;;;;;;12.66;56.04;95897.06;5079930;28;20497;-69
2024/01/03 08:02:15;;;;;;;2.90;1.07;;;;;;;12.70;55.79;95887.75;5074837;28;20198;-70
2024/01/03 08:04:40;;;;;;;4.13;0.90;;;;;;;12.83;55.49;95892.25;5087813;28;20442;-70
2024/01/03 08:07:06;;;;;;;5.47;1.27;;;;;;;12.97;56.16;95886.03;5082152;28;20203;-69
2024/01/03 08:09:33;;;;;;;2.40;1.27;;;;;;;13.34;54.47;95889.09;5088689;28;20217;-70
2024/01/03 08:11:58;;;;;;;7.17;1.30;;;;;;;13.82;53.51;95887.28;5079049;28;20950;-70
2024/01/03 08:14:24;;;;;;;3.93;1.40;;;;;;;14.00;52.66;95902.44;5067313;28;20428;-71
2024/01/03 08:16:49;;;;;;;5.70;1.50;;;;;;;14.62;50.94;95903.88;5067858;28;20201;-70
2024/01/03 08:19:15;;;;;;;2.10;0.93;;;;;;;15.29;49.66;95900.88;5077886;28;20298;-71
2024/01/03 08:21:40;;;;;;;5.73;0.97;;;;;;;15.46;49.13;95898.50;5067474;28;20186;-71
2024/01/03 08:24:06;;;;;;;2.23;1.00;;;;;;;15.65;48.18;95896.72;5067269;28;20798;-71
2024/01/03 08:26:32;;;;;;;3.00;1.10;;;;;;;15.31;48.89;95889.06;5064147;28;20190;-70
2024/01/03 08:28:57;;;;;;;4.20;2.10;;;;;;;15.26;48.91;95901.28;5065931;28;20209;-71
2024/01/03 08:31:22;;;;;;;4.40;1.20;;;;;;;14.59;50.40;95895.38;5063234;28;20183;-71
2024/01/03 08:33:48;;;;;;;2.00;0.90;;;;;;;14.51;50.78;95887.66;5067897;28;20186;-71
2024/01/03 08:36:14;;;;;;;2.47;1.20;;;;;;;14.57;50.87;95900.03;5066426;28;20232;-71
2024/01/03 08:38:40;;;;;;;3.47;1.30;;;;;;;14.46;51.24;95890.16;5058738;28;20690;-71
2024/01/03 08:41:16;;;;;;;5.03;1.07;;;;;;;14.33;51.97;95900.72;5055667;28;20447;-71
2024/01/03 08:43:43;;;;;;;3.80;0.93;;;;;;;13.83;53.89;95896.78;5053224;28;20224;-70
2024/01/03 08:46:09;;;;;;;5.03;1.20;;;;;;;13.77;54.04;95884.44;5083004;28;20519;-71
2024/01/03 08:48:35;;;;;;;1.80;1.03;;;;;;;13.87;54.35;95878.75;5066457;28;20518;-71
2024/01/03 08:51:00;;;;;;;4.10;1.27;;;;;;;13.67;55.34;95871.72;5078847;28;20194;-71
2024/01/03 08:53:26;;;;;;;4.27;1.00;;;;;;;13.66;55.49;95876.16;5063797;28;20529;-72
2024/01/03 08:55:51;;;;;;;2.13;0.93;;;;;;;13.49;55.86;95880.19;5068542;28;20293;-72
2024/01/03 08:58:17;;;;;;;6.50;1.10;;;;;;;13.24;56.67;95888.66;5071487;28;20222;-72
2024/01/03 09:00:44;;;;;;;3.27;1.23;;;;;;;13.19;56.97;95891.91;5080245;28;20539;-72
2024/01/03 09:03:10;;;;;;;3.57;1.30;;;;;;;13.23;57.03;95915.19;5074739;28;20194;-71
2024/01/03 09:05:35;;;;;;;2.03;0.90;;;;;;;13.12;57.13;95916.56;5074087;28;20521;-70
2024/01/03 09:08:01;;;;;;;4.07;1.33;;;;;;;13.09;57.11;95922.25;5067099;28;20480;-71
2024/01/03 09:10:27;;;;;;;2.77;1.10;;;;;;;13.59;56.31;95906.94;5076690;28;20179;-71
2024/01/03 09:12:52;;;;;;;2.80;0.90;;;;;;;14.15;55.38;95907.47;5070534;28;20184;-72
2024/01/03 09:15:17;;;;;;;2.40;1.17;;;;;;;14.92;53.48;95913.88;5070743;28;20231;-71
2024/01/03 09:17:43;;;;;;;3.90;0.93;;;;;;;15.20;51.54;95916.16;5070090;28;20221;-72
2024/01/03 09:20:11;;;;;;;2.97;1.10;;;;;;;15.68;50.89;95901.59;5074500;28;20289;-71
2024/01/03 09:22:37;;;;;;;3.00;0.87;;;;;;;15.61;49.87;95890.28;5070337;28;20488;-71
2024/01/03 09:25:03;;;;;;;1.97;0.80;;;;;;;14.94;51.10;95914.50;5067782;28;20450;-72
2024/01/03 09:27:28;;;;;;;5.17;1.40;;;;;;;14.96;51.47;95915.88;5044775;28;20455;-71
2024/01/03 09:29:53;;;;;;;2.77;0.70;;;;;;;15.25;51.97;95924.25;5067820;28;20266;-70
2024/01/03 09:32:19;;;;;;;2.00;0.97;;;;;;;15.30;50.51;95915.69;5040130;28;20252;-71
2024/01/03 09:34:44;;;;;;;1.67;0.80;;;;;;;14.93;50.91;95926.06;5065235;28;20198;-71
2024/01/03 09:37:10;;;;;;;2.17;0.73;;;;;;;15.28;50.38;95925.66;5064540;28;20284;-71
2024/01/03 09:39:35;;;;;;;1.63;0.60;;;;;;;14.61;51.33;95924.16;5058897;28;20515;-71
2024/01/03 09:42:01;;;;;;;2.33;0.90;;;;;;;14.70;51.33;95937.94;5069916;28;20220;-72
2024/01/03 09:44:27;;;;;;;2.67;0.80;;;;;;;14.36;52.65;95929.31;5043324;28;20224;-70
2024/01/03 09:46:52;;;;;;;3.43;0.80;;;;;;;14.12;53.25;95934.22;5066907;28;20437;-71
2024/01/03 09:49:18;;;;;;;2.70;0.80;;;;;;;14.08;53.83;95946.97;5065760;28;20279;-71
2024/01/03 09:51:47;;;;;;;2.40;0.77;;;;;;;14.04;54.43;95913.38;5069070;28;20282;-72
2024/01/03 09:54:13;;;;;;;2.40;0.90;;;;;;;13.69;54.86;95924.94;5071111;28;20186;-70
2024/01/03 09:56:40;;;;;;;2.70;1.13;;;;;;;13.54;55.64;95940.94;5061649;28;20877;-71
2024/01/03 09:59:06;;;;;;;2.60;0.90;;;;;;;13.73;55.53;95923.53;5073954;28;20221;-71
2024/01/03 10:01:32;;;;;;;2.43;0.90;;;;;;;13.79;55.48;95919.28;5059963;28;20982;-71
2024/01/03 10:03:58;;;;;;;3.40;0.97;;;;;;;13.69;55.76;95927.56;5075269;28;23562;-71
2024/01/03 10:06:23;;;;;;;2.63;0.97;;;;;;;13.55;56.08;95916.25;5064544;28;20930;-72
2024/01/03 10:09:00;;;;;;;4.60;1.13;;;;;;;13.58;56.49;95920.28;5069861;28;20199;-70
2024/01/03 10:11:26;;;;;;;1.40;0.97;;;;;;;13.77;56.21;95916.03;5068374;28;20194;-70
2024/01/03 10:13:55;;;;;;;1.97;0.83;;;;;;;13.64;56.99;95916.88;5057325;28;20938;-70
2024/01/03 10:16:28;;;;;;;3.30;1.03;;;;;;;13.56;56.86;95928.41;5078859;28;20239;-71
2024/01/03 10:19:10;;;;;;;1.87;0.90;;;;;;;13.61;57.45;95919.88;5074410;28;20456;-71
2024/01/03 10:21:46;;;;;;;2.97;1.00;;;;;;;13.23;58.21;95923.06;5052797;28;21031;-69
2024/01/03 10:24:12;;;;;;;3.13;1.00;;;;;;;13.41;57.73;95927.78;5032399;28;20733;-70
2024/01/03 10:26:37;;;;;;;2.23;1.07;;;;;;;13.30;58.11;95919.44;5047402;28;20428;-70
2024/01/03 10:29:12;;;;;;;2.33;1.00;;;;;;;13.17;58.12;95927.31;5071879;28;20198;-71
2024/01/03 10:31:38;;;;;;;4.63;1.13;;;;;;;12.97;58.32;95946.50;5024471;28;20194;-70
2024/01/03 10:34:08;;;;;;;2.57;1.10;;;;;;;13.48;58.08;95915.44;5039983;28;20451;-72
2024/01/03 10:36:34;;;;;;;4.40;1.00;;;;;;;13.56;57.52;95912.59;5066453;28;20259;-71
2024/01/03 10:39:02;;;;;;;3.10;0.97;;;;;;;13.16;57.78;95912.53;5054602;28;20477;-72
2024/01/03 10:41:31;;;;;;;5.73;1.23;;;;;;;13.17;58.17;95909.69;5053011;28;20447;-71
2024/01/03 10:43:59;;;;;;;2.50;1.00;;;;;;;13.20;57.71;95909.31;5070388;28;20449;-71
2024/01/03 10:46:25;;;;;;;3.53;1.03;;;;;;;13.45;57.38;95910.59;5068689;28;20482;-71
2024/01/03 10:48:51;;;;;;;4.57;1.20;;;;;;;13.60;57.02;95913.00;5069238;28;20443;-70
2024/01/03 10:51:22;;;;;;;3.33;1.10;;;;;;;13.89;55.99;95917.03;5060763;28;20494;-71
2024/01/03 10:53:47;;;;;;;1.93;0.97;;;;;;;13.86;55.44;95900.84;5038496;28;20190;-71
2024/01/03 10:56:15;;;;;;;2.73;0.90;;;;;;;13.89;55.78;95922.28;5043937;28;20436;-71
2024/01/03 10:58:41;;;;;;;4.80;0.90;;;;;;;14.09;55.37;95916.19;5043003;28;20307;-71
2024/01/03 11:01:14;;;;;;;3.47;1.10;;;;;;;14.32;54.67;95914.91;5060446;28;20936;-71
2024/01/03 11:04:02;;;;;;;5.30;1.20;;;;;;;14.19;54.04;95916.56;5039033;28;20282;-71
2024/01/03 11:06:47;;;;;;;2.43;0.90;;;;;;;14.09;54.42;95918.84;5068849;28;20812;-71
2024/01/03 11:09:13;;;;;;;3.43;1.00;;;;;;;14.22;54.39;95921.44;5030599;28;20869;-73
2024/01/03 11:11:42;;;;;;;2.20;1.30;;;;;;;14.29;53.95;95927.50;5038050;28;20463;-71
2024/01/03 11:14:17;;;;;;;3.63;1.10;;;;;;;14.18;53.85;95920.22;5039589;28;20424;-70
2024/01/03 11:16:42;;;;;;;1.80;0.97;;;;;;;14.10;53.88;95929.16;5078178;28;20516;-70
2024/01/03 11:19:09;;;;;;;2.93;1.60;;;;;;;14.24;53.66;95937.03;5081218;28;20459;-71
2024/01/03 11:21:36;;;;;;;3.37;1.53;;;;;;;14.20;53.41;95934.00;5075336;28;20265;-71
2024/01/03 11:24:02;;;;;;;3.10;0.80;;;;;;;14.26;53.23;95935.81;5034881;28;20449;-71
2024/01/03 11:26:56;;;;;;;3.00;0.80;;;;;;;14.63;53.18;95929.19;5064379;28;20424;-73
2024/01/03 11:29:34;;;;;;;3.63;0.90;;;;;;;15.30;52.07;95921.78;5061412;28;20537;-72
2024/01/03 11:32:02;;;;;;;2.50;0.80;;;;;;;15.46;51.16;95903.78;5072128;28;20806;-72